sensor_id;sensor_type;location;lat;lon;timestamp;temperature;humidity
18658;DHT22;9458;50.942;5.074;2024-03-23T00:51:53;9.20;99.90
18658;DHT22;9458;50.942;5.074;2024-03-23T00:54:20;9.10;99.90
18658;DHT22;9458;50.942;5.074;2024-03-23T00:56:46;9.10;99.90
18658;DHT22;9458;50.942;5.074;2024-03-23T00:59:16;9.10;99.90
18658;DHT22;9458;50.942;5.074;2024-03-23T01:01:42;9.00;99.90
18658;DHT22;9458;50.942;5.074;2024-03-23T01:04:09;9.00;99.90
18658;DHT22;9458;50.942;5.074;2024-03-23T01:06:35;8.90;99.90
18658;DHT22;9458;50.942;5.074;2024-03-23T01:09:03;9.00;99.90
18658;DHT22;9458;50.942;5.074;2024-03-23T01:11:32;9.00;99.90
18658;DHT22;9458;50.942;5.074;2024-03-23T01:13:59;8.80;99.90
18658;DHT22;9458;50.942;5.074;2024-03-23T01:16:25;8.80;99.90
18658;DHT22;9458;50.942;5.074;2024-03-23T01:18:52;9.00;99.90
18658;DHT22;9458;50.942;5.074;2024-03-23T01:21:19;8.90;99.90
18658;DHT22;9458;50.942;5.074;2024-03-23T01:23:45;8.90;99.90
18658;DHT22;9458;50.942;5.074;2024-03-23T01:26:13;8.70;99.90
18658;DHT22;9458;50.942;5.074;2024-03-23T01:28:40;8.80;99.90
18658;DHT22;9458;50.942;5.074;2024-03-23T01:31:07;8.90;99.90
18658;DHT22;9458;50.942;5.074;2024-03-23T01:33:33;8.80;99.90
18658;DHT22;9458;50.942;5.074;2024-03-23T01:36:00;8.70;99.90
18658;DHT22;9458;50.942;5.074;2024-03-23T01:38:26;8.70;99.90
18658;DHT22;9458;50.942;5.074;2024-03-23T01:40:56;8.60;99.90
18658;DHT22;9458;50.942;5.074;2024-03-23T01:43:24;8.60;99.90
18658;DHT22;9458;50.942;5.074;2024-03-23T01:45:51;8.60;99.90
18658;DHT22;9458;50.942;5.074;2024-03-23T01:48:19;8.70;99.90
18658;DHT22;9458;50.942;5.074;2024-03-23T01:50:46;8.70;99.90
18658;DHT22;9458;50.942;5.074;2024-03-23T01:53:14;8.50;99.90
18658;DHT22;9458;50.942;5.074;2024-03-23T01:55:42;8.50;99.90
18658;DHT22;9458;50.942;5.074;2024-03-23T01:58:08;8.80;99.90
18658;DHT22;9458;50.942;5.074;2024-03-23T02:00:37;8.70;99.90
18658;DHT22;9458;50.942;5.074;2024-03-23T02:03:22;8.70;99.90
18658;DHT22;9458;50.942;5.074;2024-03-23T02:05:49;8.70;99.90
18658;DHT22;9458;50.942;5.074;2024-03-23T02:08:17;8.60;99.90
18658;DHT22;9458;50.942;5.074;2024-03-23T02:10:44;8.70;99.90
18658;DHT22;9458;50.942;5.074;2024-03-23T02:13:10;8.90;99.90
18658;DHT22;9458;50.942;5.074;2024-03-23T02:15:39;8.90;99.90
18658;DHT22;9458;50.942;5.074;2024-03-23T02:18:06;9.00;99.90
18658;DHT22;9458;50.942;5.074;2024-03-23T02:20:34;8.80;99.90
18658;DHT22;9458;50.942;5.074;2024-03-23T02:23:01;8.60;99.90
18658;DHT22;9458;50.942;5.074;2024-03-23T02:25:28;8.50;99.90
18658;DHT22;9458;50.942;5.074;2024-03-23T02:27:54;8.50;99.90
18658;DHT22;9458;50.942;5.074;2024-03-23T02:30:21;8.40;99.90
18658;DHT22;9458;50.942;5.074;2024-03-23T02:32:47;8.40;99.90
18658;DHT22;9458;50.942;5.074;2024-03-23T02:35:14;8.40;99.90
18658;DHT22;9458;50.942;5.074;2024-03-23T02:37:40;8.50;99.90
18658;DHT22;9458;50.942;5.074;2024-03-23T02:40:09;9.00;99.90
18658;DHT22;9458;50.942;5.074;2024-03-23T02:42:35;8.40;99.90
18658;DHT22;9458;50.942;5.074;2024-03-23T02:45:02;8.60;99.90
18658;DHT22;9458;50.942;5.074;2024-03-23T02:47:30;8.60;99.90
18658;DHT22;9458;50.942;5.074;2024-03-23T02:49:57;8.60;99.90
18658;DHT22;9458;50.942;5.074;2024-03-23T02:52:23;8.50;99.90
18658;DHT22;9458;50.942;5.074;2024-03-23T02:54:50;8.70;99.90
18658;DHT22;9458;50.942;5.074;2024-03-23T02:57:18;8.80;99.90
18658;DHT22;9458;50.942;5.074;2024-03-23T02:59:45;8.80;99.90
18658;DHT22;9458;50.942;5.074;2024-03-23T03:02:12;8.70;99.90
18658;DHT22;9458;50.942;5.074;2024-03-23T03:04:39;8.80;99.90
18658;DHT22;9458;50.942;5.074;2024-03-23T03:07:06;8.80;99.90
18658;DHT22;9458;50.942;5.074;2024-03-23T03:09:33;8.70;99.90
18658;DHT22;9458;50.942;5.074;2024-03-23T03:12:01;8.70;99.90
18658;DHT22;9458;50.942;5.074;2024-03-23T03:14:33;8.80;99.90
18658;DHT22;9458;50.942;5.074;2024-03-23T03:16:59;8.80;99.90
18658;DHT22;9458;50.942;5.074;2024-03-23T03:19:26;8.80;99.90
18658;DHT22;9458;50.942;5.074;2024-03-23T03:21:52;8.70;99.90
18658;DHT22;9458;50.942;5.074;2024-03-23T03:24:19;8.90;99.90
18658;DHT22;9458;50.942;5.074;2024-03-23T03:26:45;8.90;99.90
18658;DHT22;9458;50.942;5.074;2024-03-23T03:29:12;8.90;99.90
18658;DHT22;9458;50.942;5.074;2024-03-23T03:31:40;8.80;99.90
18658;DHT22;9458;50.942;5.074;2024-03-23T03:34:07;8.80;99.90
18658;DHT22;9458;50.942;5.074;2024-03-23T03:36:33;8.60;99.90
18658;DHT22;9458;50.942;5.074;2024-03-23T03:38:59;8.40;99.90
18658;DHT22;9458;50.942;5.074;2024-03-23T03:41:26;8.50;99.90
18658;DHT22;9458;50.942;5.074;2024-03-23T03:43:53;8.20;99.90
18658;DHT22;9458;50.942;5.074;2024-03-23T03:46:19;8.60;99.90
18658;DHT22;9458;50.942;5.074;2024-03-23T03:48:47;8.80;99.90
18658;DHT22;9458;50.942;5.074;2024-03-23T03:51:14;8.80;99.90
18658;DHT22;9458;50.942;5.074;2024-03-23T03:53:41;8.70;99.90
18658;DHT22;9458;50.942;5.074;2024-03-23T03:56:07;8.80;99.90
18658;DHT22;9458;50.942;5.074;2024-03-23T03:58:34;8.90;99.90
18658;DHT22;9458;50.942;5.074;2024-03-23T04:01:00;8.80;99.90
18658;DHT22;9458;50.942;5.074;2024-03-23T04:03:27;8.60;99.90
18658;DHT22;9458;50.942;5.074;2024-03-23T04:05:55;8.60;99.90
18658;DHT22;9458;50.942;5.074;2024-03-23T04:08:22;8.50;99.90
18658;DHT22;9458;50.942;5.074;2024-03-23T04:10:48;8.50;99.90
18658;DHT22;9458;50.942;5.074;2024-03-23T04:13:15;8.40;99.90
18658;DHT22;9458;50.942;5.074;2024-03-23T04:15:42;8.70;99.90
18658;DHT22;9458;50.942;5.074;2024-03-23T04:18:09;8.60;99.90
18658;DHT22;9458;50.942;5.074;2024-03-23T04:20:35;8.60;99.90
18658;DHT22;9458;50.942;5.074;2024-03-23T04:23:03;8.60;99.90
18658;DHT22;9458;50.942;5.074;2024-03-23T04:25:30;8.60;99.90
18658;DHT22;9458;50.942;5.074;2024-03-23T04:27:57;8.50;99.90
18658;DHT22;9458;50.942;5.074;2024-03-23T04:30:23;8.60;99.90
18658;DHT22;9458;50.942;5.074;2024-03-23T04:32:53;8.60;99.90
18658;DHT22;9458;50.942;5.074;2024-03-23T04:35:19;8.60;99.90
18658;DHT22;9458;50.942;5.074;2024-03-23T04:37:51;8.60;99.90
18658;DHT22;9458;50.942;5.074;2024-03-23T04:40:19;8.70;99.90
18658;DHT22;9458;50.942;5.074;2024-03-23T04:42:47;8.60;99.90
18658;DHT22;9458;50.942;5.074;2024-03-23T04:45:14;8.60;99.90
18658;DHT22;9458;50.942;5.074;2024-03-23T04:47:41;8.60;99.90
18658;DHT22;9458;50.942;5.074;2024-03-23T04:50:09;8.50;99.90
18658;DHT22;9458;50.942;5.074;2024-03-23T04:52:37;8.50;99.90
18658;DHT22;9458;50.942;5.074;2024-03-23T04:55:04;8.50;99.90
18658;DHT22;9458;50.942;5.074;2024-03-23T04:57:33;8.60;99.90
18658;DHT22;9458;50.942;5.074;2024-03-23T04:59:59;8.50;99.90
18658;DHT22;9458;50.942;5.074;2024-03-23T05:02:26;8.50;99.90
18658;DHT22;9458;50.942;5.074;2024-03-23T05:04:53;8.40;99.90
18658;DHT22;9458;50.942;5.074;2024-03-23T05:07:20;8.30;99.90
18658;DHT22;9458;50.942;5.074;2024-03-23T05:09:46;8.40;99.90
18658;DHT22;9458;50.942;5.074;2024-03-23T05:12:14;8.50;99.90
18658;DHT22;9458;50.942;5.074;2024-03-23T05:14:42;8.30;99.90
18658;DHT22;9458;50.942;5.074;2024-03-23T05:17:09;8.30;99.90
18658;DHT22;9458;50.942;5.074;2024-03-23T05:19:35;8.40;99.90
18658;DHT22;9458;50.942;5.074;2024-03-23T05:22:02;8.40;99.90
18658;DHT22;9458;50.942;5.074;2024-03-23T05:24:28;8.50;99.90
18658;DHT22;9458;50.942;5.074;2024-03-23T05:26:55;8.50;99.90
18658;DHT22;9458;50.942;5.074;2024-03-23T05:29:24;8.60;99.90
18658;DHT22;9458;50.942;5.074;2024-03-23T05:31:53;8.50;99.90
18658;DHT22;9458;50.942;5.074;2024-03-23T05:34:22;8.40;99.90
18658;DHT22;9458;50.942;5.074;2024-03-23T05:36:51;8.20;99.90
18658;DHT22;9458;50.942;5.074;2024-03-23T05:39:17;8.10;99.90
18658;DHT22;9458;50.942;5.074;2024-03-23T05:41:44;8.10;99.90
18658;DHT22;9458;50.942;5.074;2024-03-23T05:44:10;8.20;99.90
18658;DHT22;9458;50.942;5.074;2024-03-23T05:46:37;8.20;99.90
18658;DHT22;9458;50.942;5.074;2024-03-23T05:49:05;8.20;99.90
18658;DHT22;9458;50.942;5.074;2024-03-23T05:51:32;8.20;99.90
18658;DHT22;9458;50.942;5.074;2024-03-23T05:53:58;8.40;99.90
18658;DHT22;9458;50.942;5.074;2024-03-23T05:56:26;8.60;99.90
18658;DHT22;9458;50.942;5.074;2024-03-23T05:58:52;8.70;99.90
18658;DHT22;9458;50.942;5.074;2024-03-23T06:01:19;8.70;99.90
18658;DHT22;9458;50.942;5.074;2024-03-23T06:03:45;8.80;99.90
18658;DHT22;9458;50.942;5.074;2024-03-23T06:06:14;8.80;99.90
18658;DHT22;9458;50.942;5.074;2024-03-23T06:08:40;8.60;99.90
18658;DHT22;9458;50.942;5.074;2024-03-23T06:11:07;8.60;99.90
18658;DHT22;9458;50.942;5.074;2024-03-23T06:13:33;8.40;99.90
18658;DHT22;9458;50.942;5.074;2024-03-23T06:16:00;8.50;99.90
18658;DHT22;9458;50.942;5.074;2024-03-23T06:18:27;8.40;99.90
18658;DHT22;9458;50.942;5.074;2024-03-23T06:20:54;8.50;99.90
18658;DHT22;9458;50.942;5.074;2024-03-23T06:23:22;8.40;99.90
18658;DHT22;9458;50.942;5.074;2024-03-23T06:25:49;8.30;99.90
18658;DHT22;9458;50.942;5.074;2024-03-23T06:28:15;8.50;99.90
18658;DHT22;9458;50.942;5.074;2024-03-23T06:30:44;8.80;99.90
18658;DHT22;9458;50.942;5.074;2024-03-23T06:33:10;9.50;99.90
18658;DHT22;9458;50.942;5.074;2024-03-23T06:35:37;10.80;99.90
18658;DHT22;9458;50.942;5.074;2024-03-23T06:38:03;11.90;99.90
18658;DHT22;9458;50.942;5.074;2024-03-23T06:40:32;12.90;99.90
18658;DHT22;9458;50.942;5.074;2024-03-23T06:42:58;12.90;99.90
18658;DHT22;9458;50.942;5.074;2024-03-23T06:45:25;12.40;99.90
18658;DHT22;9458;50.942;5.074;2024-03-23T06:47:51;11.90;99.90
18658;DHT22;9458;50.942;5.074;2024-03-23T06:50:18;11.40;99.90
18658;DHT22;9458;50.942;5.074;2024-03-23T06:52:44;10.80;99.90
18658;DHT22;9458;50.942;5.074;2024-03-23T06:55:11;10.40;99.90
18658;DHT22;9458;50.942;5.074;2024-03-23T06:57:38;10.00;99.90
18658;DHT22;9458;50.942;5.074;2024-03-23T07:00:06;9.60;99.90
18658;DHT22;9458;50.942;5.074;2024-03-23T07:02:35;9.70;99.90
18658;DHT22;9458;50.942;5.074;2024-03-23T07:05:03;11.00;99.90
18658;DHT22;9458;50.942;5.074;2024-03-23T07:07:29;12.70;99.90
18658;DHT22;9458;50.942;5.074;2024-03-23T07:09:56;13.70;99.90
18658;DHT22;9458;50.942;5.074;2024-03-23T07:12:23;14.70;99.90
18658;DHT22;9458;50.942;5.074;2024-03-23T07:14:51;14.50;99.90
18658;DHT22;9458;50.942;5.074;2024-03-23T07:17:17;13.90;99.90
18658;DHT22;9458;50.942;5.074;2024-03-23T07:19:46;13.80;99.90
18658;DHT22;9458;50.942;5.074;2024-03-23T07:22:12;13.00;99.90
18658;DHT22;9458;50.942;5.074;2024-03-23T07:24:40;12.80;99.90
18658;DHT22;9458;50.942;5.074;2024-03-23T07:27:06;11.80;99.90
18658;DHT22;9458;50.942;5.074;2024-03-23T07:29:35;11.20;99.90
18658;DHT22;9458;50.942;5.074;2024-03-23T07:32:03;10.90;99.90
18658;DHT22;9458;50.942;5.074;2024-03-23T07:34:30;10.90;99.90
18658;DHT22;9458;50.942;5.074;2024-03-23T07:36:57;10.70;99.90
18658;DHT22;9458;50.942;5.074;2024-03-23T07:39:24;11.30;99.90
18658;DHT22;9458;50.942;5.074;2024-03-23T07:41:50;11.90;99.90
18658;DHT22;9458;50.942;5.074;2024-03-23T07:44:17;12.30;99.90
18658;DHT22;9458;50.942;5.074;2024-03-23T07:46:43;11.80;99.90
18658;DHT22;9458;50.942;5.074;2024-03-23T07:49:12;12.20;99.90
18658;DHT22;9458;50.942;5.074;2024-03-23T07:51:38;13.50;99.90
18658;DHT22;9458;50.942;5.074;2024-03-23T07:54:07;15.70;99.90
18658;DHT22;9458;50.942;5.074;2024-03-23T07:56:34;15.10;99.90
18658;DHT22;9458;50.942;5.074;2024-03-23T07:59:01;14.00;99.90
18658;DHT22;9458;50.942;5.074;2024-03-23T08:01:30;13.20;99.90
18658;DHT22;9458;50.942;5.074;2024-03-23T08:03:57;11.70;99.90
18658;DHT22;9458;50.942;5.074;2024-03-23T08:06:25;11.90;99.90
18658;DHT22;9458;50.942;5.074;2024-03-23T08:08:55;12.00;99.90
18658;DHT22;9458;50.942;5.074;2024-03-23T08:11:28;13.40;99.90
18658;DHT22;9458;50.942;5.074;2024-03-23T08:13:56;15.50;99.90
18658;DHT22;9458;50.942;5.074;2024-03-23T08:16:24;17.20;99.90
18658;DHT22;9458;50.942;5.074;2024-03-23T08:18:52;16.80;99.90
18658;DHT22;9458;50.942;5.074;2024-03-23T08:21:18;17.20;99.90
18658;DHT22;9458;50.942;5.074;2024-03-23T08:23:50;17.90;99.90
18658;DHT22;9458;50.942;5.074;2024-03-23T08:26:16;18.80;99.90
18658;DHT22;9458;50.942;5.074;2024-03-23T08:28:44;19.20;99.90
18658;DHT22;9458;50.942;5.074;2024-03-23T08:31:12;19.60;99.90
18658;DHT22;9458;50.942;5.074;2024-03-23T08:33:40;19.30;99.90
18658;DHT22;9458;50.942;5.074;2024-03-23T08:36:10;18.50;99.90
18658;DHT22;9458;50.942;5.074;2024-03-23T08:38:39;17.10;99.90
18658;DHT22;9458;50.942;5.074;2024-03-23T08:41:08;17.30;99.90
18658;DHT22;9458;50.942;5.074;2024-03-23T08:43:37;17.20;99.90
18658;DHT22;9458;50.942;5.074;2024-03-23T08:46:04;18.50;99.90
18658;DHT22;9458;50.942;5.074;2024-03-23T08:48:32;19.80;99.90
18658;DHT22;9458;50.942;5.074;2024-03-23T08:51:02;18.90;99.90
18658;DHT22;9458;50.942;5.074;2024-03-23T08:53:32;17.60;99.90
18658;DHT22;9458;50.942;5.074;2024-03-23T08:55:59;16.80;99.90
18658;DHT22;9458;50.942;5.074;2024-03-23T08:58:30;15.00;99.90
18658;DHT22;9458;50.942;5.074;2024-03-23T09:01:02;14.00;99.90
18658;DHT22;9458;50.942;5.074;2024-03-23T09:03:29;14.00;99.90
18658;DHT22;9458;50.942;5.074;2024-03-23T09:05:55;14.30;99.90
18658;DHT22;9458;50.942;5.074;2024-03-23T09:08:24;14.50;99.90
18658;DHT22;9458;50.942;5.074;2024-03-23T09:10:50;14.70;99.90
18658;DHT22;9458;50.942;5.074;2024-03-23T09:13:17;14.70;99.90
18658;DHT22;9458;50.942;5.074;2024-03-23T09:15:48;14.50;99.90
18658;DHT22;9458;50.942;5.074;2024-03-23T09:18:16;13.10;99.90
18658;DHT22;9458;50.942;5.074;2024-03-23T09:20:42;14.30;99.90
18658;DHT22;9458;50.942;5.074;2024-03-23T09:23:09;16.40;99.90
18658;DHT22;9458;50.942;5.074;2024-03-23T09:25:39;14.00;99.90
18658;DHT22;9458;50.942;5.074;2024-03-23T09:28:06;12.80;99.90
18658;DHT22;9458;50.942;5.074;2024-03-23T09:30:34;12.80;99.90
18658;DHT22;9458;50.942;5.074;2024-03-23T09:33:03;13.50;99.90
18658;DHT22;9458;50.942;5.074;2024-03-23T09:35:29;13.60;99.90
18658;DHT22;9458;50.942;5.074;2024-03-23T09:37:56;12.50;99.90
18658;DHT22;9458;50.942;5.074;2024-03-23T09:40:23;12.20;99.90
18658;DHT22;9458;50.942;5.074;2024-03-23T09:42:50;11.70;99.90
18658;DHT22;9458;50.942;5.074;2024-03-23T09:45:21;11.80;99.90
18658;DHT22;9458;50.942;5.074;2024-03-23T09:47:49;11.80;99.90
18658;DHT22;9458;50.942;5.074;2024-03-23T09:50:17;11.40;99.90
18658;DHT22;9458;50.942;5.074;2024-03-23T09:52:46;11.50;99.90
18658;DHT22;9458;50.942;5.074;2024-03-23T09:55:12;12.20;99.90
18658;DHT22;9458;50.942;5.074;2024-03-23T09:57:39;11.90;99.90
18658;DHT22;9458;50.942;5.074;2024-03-23T10:00:07;12.00;99.90
18658;DHT22;9458;50.942;5.074;2024-03-23T10:02:34;12.30;99.90
18658;DHT22;9458;50.942;5.074;2024-03-23T10:05:01;11.80;99.90
18658;DHT22;9458;50.942;5.074;2024-03-23T10:07:29;11.70;99.90
18658;DHT22;9458;50.942;5.074;2024-03-23T10:09:56;12.10;99.90
18658;DHT22;9458;50.942;5.074;2024-03-23T10:12:23;12.70;99.90
18658;DHT22;9458;50.942;5.074;2024-03-23T10:14:50;12.90;99.90
18658;DHT22;9458;50.942;5.074;2024-03-23T10:17:20;13.10;99.90
18658;DHT22;9458;50.942;5.074;2024-03-23T10:19:49;13.00;99.90
18658;DHT22;9458;50.942;5.074;2024-03-23T10:22:18;13.30;99.90
18658;DHT22;9458;50.942;5.074;2024-03-23T10:24:46;13.20;99.90
18658;DHT22;9458;50.942;5.074;2024-03-23T10:27:15;12.80;99.90
18658;DHT22;9458;50.942;5.074;2024-03-23T10:29:42;12.70;99.90
18658;DHT22;9458;50.942;5.074;2024-03-23T10:32:10;12.70;99.90
18658;DHT22;9458;50.942;5.074;2024-03-23T10:34:37;12.20;99.90
18658;DHT22;9458;50.942;5.074;2024-03-23T10:37:05;11.70;99.90
18658;DHT22;9458;50.942;5.074;2024-03-23T10:39:35;11.30;99.90
18658;DHT22;9458;50.942;5.074;2024-03-23T10:42:05;10.90;99.90
18658;DHT22;9458;50.942;5.074;2024-03-23T10:44:45;10.60;99.90
18658;DHT22;9458;50.942;5.074;2024-03-23T10:47:42;10.50;99.90
18658;DHT22;9458;50.942;5.074;2024-03-23T10:50:41;10.90;99.90
18658;DHT22;9458;50.942;5.074;2024-03-23T10:56:59;12.10;99.90
18658;DHT22;9458;50.942;5.074;2024-03-23T11:00:36;12.20;99.90
18658;DHT22;9458;50.942;5.074;2024-03-23T11:02:59;12.00;99.90
18658;DHT22;9458;50.942;5.074;2024-03-23T11:05:31;12.20;99.90
18658;DHT22;9458;50.942;5.074;2024-03-23T11:07:58;11.80;99.90
18658;DHT22;9458;50.942;5.074;2024-03-23T11:10:26;11.70;99.90
18658;DHT22;9458;50.942;5.074;2024-03-23T11:12:53;11.70;99.90
18658;DHT22;9458;50.942;5.074;2024-03-23T11:15:27;12.10;99.90
18658;DHT22;9458;50.942;5.074;2024-03-23T11:18:04;12.60;99.90
18658;DHT22;9458;50.942;5.074;2024-03-23T11:20:34;12.40;99.90
18658;DHT22;9458;50.942;5.074;2024-03-23T11:23:01;12.60;99.90
18658;DHT22;9458;50.942;5.074;2024-03-23T11:25:28;11.80;99.90
18658;DHT22;9458;50.942;5.074;2024-03-23T11:27:55;12.20;99.90
18658;DHT22;9458;50.942;5.074;2024-03-23T11:30:23;12.10;99.90
18658;DHT22;9458;50.942;5.074;2024-03-23T11:32:53;11.90;99.90
18658;DHT22;9458;50.942;5.074;2024-03-23T11:35:29;11.60;99.90
18658;DHT22;9458;50.942;5.074;2024-03-23T11:38:06;10.40;99.90
18658;DHT22;9458;50.942;5.074;2024-03-23T11:40:32;10.30;99.90
18658;DHT22;9458;50.942;5.074;2024-03-23T11:43:01;10.50;99.90
18658;DHT22;9458;50.942;5.074;2024-03-23T11:45:27;10.10;99.90
18658;DHT22;9458;50.942;5.074;2024-03-23T11:48:09;9.20;99.90
18658;DHT22;9458;50.942;5.074;2024-03-23T11:50:40;8.90;99.90
18658;DHT22;9458;50.942;5.074;2024-03-23T11:53:15;8.70;99.90
18658;DHT22;9458;50.942;5.074;2024-03-23T11:55:46;8.80;99.90
18658;DHT22;9458;50.942;5.074;2024-03-23T11:58:14;8.80;99.90
18658;DHT22;9458;50.942;5.074;2024-03-23T12:00:41;9.30;99.90
18658;DHT22;9458;50.942;5.074;2024-03-23T12:03:09;9.80;99.90
18658;DHT22;9458;50.942;5.074;2024-03-23T12:05:38;10.40;99.90
18658;DHT22;9458;50.942;5.074;2024-03-23T12:08:18;10.50;99.90
18658;DHT22;9458;50.942;5.074;2024-03-23T12:10:47;10.70;99.90
18658;DHT22;9458;50.942;5.074;2024-03-23T12:13:19;11.00;99.90
18658;DHT22;9458;50.942;5.074;2024-03-23T12:15:46;11.10;99.90
18658;DHT22;9458;50.942;5.074;2024-03-23T12:18:15;11.20;99.90
18658;DHT22;9458;50.942;5.074;2024-03-23T12:20:41;11.10;99.90
18658;DHT22;9458;50.942;5.074;2024-03-23T12:23:09;10.60;99.90
18658;DHT22;9458;50.942;5.074;2024-03-23T12:25:37;11.30;99.90
18658;DHT22;9458;50.942;5.074;2024-03-23T12:28:05;11.60;99.90
18658;DHT22;9458;50.942;5.074;2024-03-23T12:30:35;11.40;99.90
18658;DHT22;9458;50.942;5.074;2024-03-23T12:33:03;11.20;99.90
18658;DHT22;9458;50.942;5.074;2024-03-23T12:35:31;11.30;99.90
18658;DHT22;9458;50.942;5.074;2024-03-23T12:37:58;11.50;99.90
18658;DHT22;9458;50.942;5.074;2024-03-23T12:40:24;11.30;99.90
18658;DHT22;9458;50.942;5.074;2024-03-23T12:42:52;11.20;99.90
18658;DHT22;9458;50.942;5.074;2024-03-23T12:45:18;11.20;99.90
18658;DHT22;9458;50.942;5.074;2024-03-23T12:47:45;10.50;99.90
18658;DHT22;9458;50.942;5.074;2024-03-23T12:50:11;10.40;99.90
18658;DHT22;9458;50.942;5.074;2024-03-23T12:52:40;10.60;99.90
18658;DHT22;9458;50.942;5.074;2024-03-23T12:55:06;11.00;99.90
18658;DHT22;9458;50.942;5.074;2024-03-23T12:57:34;11.30;99.90
18658;DHT22;9458;50.942;5.074;2024-03-23T13:00:00;11.30;99.90
18658;DHT22;9458;50.942;5.074;2024-03-23T13:02:27;11.50;99.90
18658;DHT22;9458;50.942;5.074;2024-03-23T13:04:53;11.40;99.90
18658;DHT22;9458;50.942;5.074;2024-03-23T13:07:21;11.20;99.90
18658;DHT22;9458;50.942;5.074;2024-03-23T13:09:51;10.90;99.90
18658;DHT22;9458;50.942;5.074;2024-03-23T13:12:19;10.80;99.90
18658;DHT22;9458;50.942;5.074;2024-03-23T13:14:46;11.00;99.90
18658;DHT22;9458;50.942;5.074;2024-03-23T13:17:14;10.90;99.90
18658;DHT22;9458;50.942;5.074;2024-03-23T13:19:41;11.00;99.90
18658;DHT22;9458;50.942;5.074;2024-03-23T13:22:08;11.20;99.90
18658;DHT22;9458;50.942;5.074;2024-03-23T13:24:37;11.30;99.90
18658;DHT22;9458;50.942;5.074;2024-03-23T13:27:05;11.50;99.90
18658;DHT22;9458;50.942;5.074;2024-03-23T13:29:33;11.50;99.90
18658;DHT22;9458;50.942;5.074;2024-03-23T13:32:01;11.80;99.90
18658;DHT22;9458;50.942;5.074;2024-03-23T13:34:27;11.80;99.90
18658;DHT22;9458;50.942;5.074;2024-03-23T13:36:55;11.30;99.90
18658;DHT22;9458;50.942;5.074;2024-03-23T13:39:23;11.30;99.90
18658;DHT22;9458;50.942;5.074;2024-03-23T13:41:51;11.50;99.90
18658;DHT22;9458;50.942;5.074;2024-03-23T13:44:18;11.70;99.90
18658;DHT22;9458;50.942;5.074;2024-03-23T13:46:45;11.70;99.90
18658;DHT22;9458;50.942;5.074;2024-03-23T13:49:26;11.70;99.90
18658;DHT22;9458;50.942;5.074;2024-03-23T13:51:54;11.70;99.90
18658;DHT22;9458;50.942;5.074;2024-03-23T13:54:20;11.30;99.90
18658;DHT22;9458;50.942;5.074;2024-03-23T13:56:48;11.20;99.90
18658;DHT22;9458;50.942;5.074;2024-03-23T13:59:14;10.80;99.90
18658;DHT22;9458;50.942;5.074;2024-03-23T14:01:43;10.30;99.90
18658;DHT22;9458;50.942;5.074;2024-03-23T14:04:09;9.70;99.90
18658;DHT22;9458;50.942;5.074;2024-03-23T14:06:36;9.50;99.90
18658;DHT22;9458;50.942;5.074;2024-03-23T14:09:03;9.60;99.90
18658;DHT22;9458;50.942;5.074;2024-03-23T14:11:30;9.80;99.90
18658;DHT22;9458;50.942;5.074;2024-03-23T14:13:56;9.90;99.90
18658;DHT22;9458;50.942;5.074;2024-03-23T14:16:23;10.20;99.90
18658;DHT22;9458;50.942;5.074;2024-03-23T14:18:51;10.60;99.90
18658;DHT22;9458;50.942;5.074;2024-03-23T14:21:18;10.80;99.90
18658;DHT22;9458;50.942;5.074;2024-03-23T14:23:44;11.00;99.90
18658;DHT22;9458;50.942;5.074;2024-03-23T14:26:11;11.00;99.90
18658;DHT22;9458;50.942;5.074;2024-03-23T14:28:37;11.10;99.90
18658;DHT22;9458;50.942;5.074;2024-03-23T14:31:05;11.00;99.90
18658;DHT22;9458;50.942;5.074;2024-03-23T14:33:36;11.10;99.90
18658;DHT22;9458;50.942;5.074;2024-03-23T14:36:05;11.00;99.90
18658;DHT22;9458;50.942;5.074;2024-03-23T14:38:32;10.90;99.90
18658;DHT22;9458;50.942;5.074;2024-03-23T14:40:59;11.00;99.90
18658;DHT22;9458;50.942;5.074;2024-03-23T14:43:25;11.10;99.90
18658;DHT22;9458;50.942;5.074;2024-03-23T14:46:09;11.10;99.90
18658;DHT22;9458;50.942;5.074;2024-03-23T14:48:36;10.60;99.90
18658;DHT22;9458;50.942;5.074;2024-03-23T14:51:05;10.40;99.90
18658;DHT22;9458;50.942;5.074;2024-03-23T14:53:33;10.30;99.90
18658;DHT22;9458;50.942;5.074;2024-03-23T14:56:01;10.10;99.90
18658;DHT22;9458;50.942;5.074;2024-03-23T14:58:27;10.00;99.90
18658;DHT22;9458;50.942;5.074;2024-03-23T15:01:00;10.10;99.90
18658;DHT22;9458;50.942;5.074;2024-03-23T15:03:26;10.30;99.90
18658;DHT22;9458;50.942;5.074;2024-03-23T15:05:54;10.60;99.90
18658;DHT22;9458;50.942;5.074;2024-03-23T15:08:22;10.80;99.90
18658;DHT22;9458;50.942;5.074;2024-03-23T15:10:50;10.70;99.90
18658;DHT22;9458;50.942;5.074;2024-03-23T15:13:16;10.70;99.90
18658;DHT22;9458;50.942;5.074;2024-03-23T15:15:44;10.50;99.90
18658;DHT22;9458;50.942;5.074;2024-03-23T15:18:11;10.70;99.90
18658;DHT22;9458;50.942;5.074;2024-03-23T15:20:41;10.60;99.90
18658;DHT22;9458;50.942;5.074;2024-03-23T15:23:07;10.70;99.90
18658;DHT22;9458;50.942;5.074;2024-03-23T15:25:36;10.60;99.90
18658;DHT22;9458;50.942;5.074;2024-03-23T15:28:02;10.50;99.90
18658;DHT22;9458;50.942;5.074;2024-03-23T15:30:30;10.60;99.90
18658;DHT22;9458;50.942;5.074;2024-03-23T15:32:56;10.60;99.90
18658;DHT22;9458;50.942;5.074;2024-03-23T15:35:23;10.60;99.90
18658;DHT22;9458;50.942;5.074;2024-03-23T15:37:49;10.60;99.90
18658;DHT22;9458;50.942;5.074;2024-03-23T15:40:16;10.90;99.90
18658;DHT22;9458;50.942;5.074;2024-03-23T15:42:44;10.80;99.90
18658;DHT22;9458;50.942;5.074;2024-03-23T15:45:12;10.70;99.90
18658;DHT22;9458;50.942;5.074;2024-03-23T15:47:38;10.60;99.90
18658;DHT22;9458;50.942;5.074;2024-03-23T15:50:06;10.60;99.90
18658;DHT22;9458;50.942;5.074;2024-03-23T15:52:35;10.50;99.90
18658;DHT22;9458;50.942;5.074;2024-03-23T15:55:03;10.50;99.90
18658;DHT22;9458;50.942;5.074;2024-03-23T15:57:32;10.50;99.90
18658;DHT22;9458;50.942;5.074;2024-03-23T16:00:01;10.40;99.90
18658;DHT22;9458;50.942;5.074;2024-03-23T16:02:27;10.50;99.90
18658;DHT22;9458;50.942;5.074;2024-03-23T16:04:55;10.80;99.90
18658;DHT22;9458;50.942;5.074;2024-03-23T16:07:23;10.90;99.90
18658;DHT22;9458;50.942;5.074;2024-03-23T16:09:50;11.10;99.90
18658;DHT22;9458;50.942;5.074;2024-03-23T16:12:16;11.10;99.90
18658;DHT22;9458;50.942;5.074;2024-03-23T16:14:43;11.10;99.90
18658;DHT22;9458;50.942;5.074;2024-03-23T16:17:11;10.90;99.90
18658;DHT22;9458;50.942;5.074;2024-03-23T16:19:38;10.40;99.90
18658;DHT22;9458;50.942;5.074;2024-03-23T16:22:04;9.90;99.90
18658;DHT22;9458;50.942;5.074;2024-03-23T16:24:31;9.50;99.90
18658;DHT22;9458;50.942;5.074;2024-03-23T16:26:57;9.50;99.90
18658;DHT22;9458;50.942;5.074;2024-03-23T16:29:24;9.50;99.90
18658;DHT22;9458;50.942;5.074;2024-03-23T16:31:50;9.90;99.90
18658;DHT22;9458;50.942;5.074;2024-03-23T16:34:19;10.40;99.90
18658;DHT22;9458;50.942;5.074;2024-03-23T16:36:45;10.70;99.90
18658;DHT22;9458;50.942;5.074;2024-03-23T16:39:12;10.60;99.90
18658;DHT22;9458;50.942;5.074;2024-03-23T16:41:41;10.60;99.90
18658;DHT22;9458;50.942;5.074;2024-03-23T16:44:08;10.60;99.90
18658;DHT22;9458;50.942;5.074;2024-03-23T16:46:36;10.70;99.90
18658;DHT22;9458;50.942;5.074;2024-03-23T16:49:03;10.60;99.90
18658;DHT22;9458;50.942;5.074;2024-03-23T16:51:31;10.50;99.90